createdAt,value
2023-04-11T00:02:44.983Z,2.88
2023-04-11T00:05:32.058Z,2.90
2023-04-11T00:08:19.546Z,2.65
2023-04-11T00:11:06.258Z,1.98
2023-04-11T00:13:57.368Z,1.90
2023-04-11T00:16:43.266Z,3.50
2023-04-11T00:19:29.239Z,2.00
2023-04-11T00:22:17.576Z,1.98
2023-04-11T00:25:04.888Z,2.40
2023-04-11T00:27:57.357Z,2.30
2023-04-11T00:30:50.565Z,1.85
2023-04-11T00:36:56.962Z,1.80
2023-04-11T00:39:52.861Z,1.48
2023-04-11T00:42:50.801Z,2.20
2023-04-11T00:45:43.792Z,1.80
2023-04-11T00:48:37.028Z,1.70
2023-04-11T00:51:29.636Z,2.47
2023-04-11T00:54:23.805Z,1.73
2023-04-11T00:57:16.431Z,1.83
2023-04-11T01:00:12.163Z,1.50
2023-04-11T01:03:04.631Z,1.52
2023-04-11T01:05:57.534Z,1.60
2023-04-11T01:08:51.117Z,1.48
2023-04-11T01:11:43.599Z,1.27
2023-04-11T01:17:52.852Z,1.75
2023-04-11T01:20:45.838Z,1.27
2023-04-11T01:27:01.671Z,1.30
2023-04-11T01:33:16.332Z,1.42
2023-04-11T01:39:19.460Z,1.10
2023-04-11T01:42:14.763Z,1.42
2023-04-11T01:45:08.935Z,1.38
2023-04-11T01:48:06.774Z,1.13
2023-04-11T01:50:59.745Z,1.40
2023-04-11T01:53:52.478Z,1.55
2023-04-11T01:56:45.789Z,1.50
2023-04-11T02:02:52.329Z,1.60
2023-04-11T02:05:45.888Z,1.60
2023-04-11T02:08:38.212Z,1.75
2023-04-11T02:11:30.447Z,1.55
2023-04-11T02:14:24.182Z,1.60
2023-04-11T02:17:18.233Z,2.13
2023-04-11T02:20:12.994Z,2.10
2023-04-11T02:23:05.699Z,1.83
2023-04-11T02:25:58.823Z,2.10
2023-04-11T02:31:56.101Z,1.98
2023-04-11T02:34:48.861Z,2.33
2023-04-11T02:37:43.439Z,2.88
2023-04-11T02:40:36.799Z,3.43
2023-04-11T02:46:36.501Z,2.97
2023-04-11T02:49:31.526Z,2.90
2023-04-11T02:52:24.678Z,3.08
2023-04-11T02:55:18.663Z,2.85
2023-04-11T02:58:17.446Z,3.95
2023-04-11T03:01:11.810Z,3.72
2023-04-11T03:04:00.725Z,2.90
2023-04-11T03:07:03.443Z,2.00
2023-04-11T03:13:14.290Z,3.38
2023-04-11T03:16:08.231Z,4.00
2023-04-11T03:19:01.182Z,3.42
2023-04-11T03:21:53.416Z,5.97
2023-04-11T03:24:46.894Z,3.88
2023-04-11T03:27:40.045Z,5.55
2023-04-11T03:30:34.711Z,5.10
2023-04-11T03:36:48.599Z,3.35
2023-04-11T03:39:41.275Z,4.30
2023-04-11T03:42:33.523Z,4.90
2023-04-11T03:45:27.622Z,5.93
2023-04-11T03:48:26.436Z,6.60
2023-04-11T03:51:41.674Z,8.45
2023-04-11T03:54:31.448Z,8.02
2023-04-11T04:00:46.203Z,9.80
2023-04-11T04:03:40.115Z,14.02
2023-04-11T04:06:36.690Z,13.73
2023-04-11T04:09:30.476Z,17.77
2023-04-11T04:12:48.444Z,18.48
2023-04-11T04:15:44.710Z,16.15
2023-04-11T04:18:40.790Z,18.48
2023-04-11T04:21:33.825Z,19.15
2023-04-11T04:24:27.474Z,17.15
2023-04-11T04:27:26.714Z,17.77
2023-04-11T04:30:21.989Z,15.68
2023-04-11T04:33:33.617Z,12.85
2023-04-11T04:36:30.911Z,11.75
2023-04-11T04:39:25.321Z,14.05
2023-04-11T04:45:31.389Z,12.07
2023-04-11T04:48:26.224Z,11.18
2023-04-11T04:51:19.643Z,10.73
2023-04-11T04:54:15.862Z,10.68
2023-04-11T04:57:08.620Z,9.60
2023-04-11T05:00:01.153Z,10.95
2023-04-11T05:02:56.130Z,9.93
2023-04-11T05:05:51.699Z,9.80
2023-04-11T05:09:10.710Z,10.20
2023-04-11T05:12:07.242Z,9.48
2023-04-11T05:15:27.553Z,10.53
2023-04-11T05:18:20.491Z,7.40
2023-04-11T05:21:14.226Z,10.93
2023-04-11T05:27:19.320Z,7.95
2023-04-11T05:30:13.618Z,7.65
2023-04-11T05:33:06.587Z,8.50
2023-04-11T05:35:59.331Z,9.82
2023-04-11T05:38:51.908Z,7.85
2023-04-11T05:41:44.442Z,6.55
2023-04-11T05:44:39.834Z,6.90
2023-04-11T05:50:24.831Z,5.38
2023-04-11T05:53:17.765Z,2.72
2023-04-11T05:56:12.670Z,1.30
2023-04-11T05:59:05.296Z,1.67
2023-04-11T06:01:59.678Z,1.83
2023-04-11T06:04:52.607Z,2.08
2023-04-11T06:07:46.377Z,1.70
2023-04-11T06:10:39.009Z,2.17
2023-04-11T06:13:31.680Z,3.22
2023-04-11T06:16:24.591Z,2.42
2023-04-11T06:19:19.188Z,3.33
2023-04-11T06:22:11.888Z,3.63
2023-04-11T06:25:05.054Z,2.47
2023-04-11T06:27:57.458Z,2.78
2023-04-11T06:31:27.834Z,1.60
2023-04-11T06:34:22.080Z,1.10
2023-04-11T06:37:15.808Z,1.00
2023-04-11T06:40:09.898Z,2.95
2023-04-11T06:43:03.045Z,1.58
2023-04-11T06:45:56.829Z,1.05
2023-04-11T06:48:49.459Z,1.73
2023-04-11T06:55:00.259Z,1.73
2023-04-11T06:57:52.551Z,3.70
2023-04-11T07:00:46.014Z,1.48
2023-04-11T07:03:38.976Z,1.98
2023-04-11T07:06:31.853Z,1.63
2023-04-11T07:09:24.711Z,3.13
2023-04-11T07:12:18.562Z,1.70
2023-04-11T07:15:11.901Z,1.73
2023-04-11T07:18:04.523Z,1.40
2023-04-11T07:20:57.877Z,1.80
2023-04-11T07:23:50.622Z,1.63
2023-04-11T07:26:46.205Z,2.58
2023-04-11T07:29:40.135Z,2.42
2023-04-11T07:32:32.506Z,1.90
2023-04-11T07:35:25.843Z,2.08
2023-04-11T07:38:27.178Z,1.67
2023-04-11T07:41:19.512Z,2.35
2023-04-11T07:44:12.832Z,3.17
2023-04-11T07:47:07.184Z,2.90
2023-04-11T07:49:59.463Z,2.63
2023-04-11T07:52:52.623Z,2.28
2023-04-11T07:55:45.522Z,3.08
2023-04-11T07:58:38.859Z,2.42
2023-04-11T08:01:31.540Z,2.05
2023-04-11T08:04:25.897Z,2.78
2023-04-11T08:07:18.629Z,2.70
2023-04-11T08:10:11.803Z,2.50
2023-04-11T08:13:04.246Z,3.30
2023-04-11T08:15:56.873Z,2.63
2023-04-11T08:18:49.594Z,3.03
2023-04-11T08:21:44.514Z,3.28
2023-04-11T08:24:37.585Z,2.27
2023-04-11T08:27:30.258Z,3.85
2023-04-11T08:30:22.305Z,2.45
2023-04-11T08:33:15.183Z,3.17
2023-04-11T08:36:09.867Z,3.30
2023-04-11T08:39:04.128Z,3.00
2023-04-11T08:42:06.970Z,2.38
2023-04-11T08:44:55.135Z,2.45
2023-04-11T08:47:47.642Z,2.20
2023-04-11T08:50:41.708Z,2.60
2023-04-11T08:53:37.220Z,2.45
2023-04-11T08:56:30.962Z,1.60
2023-04-11T08:59:23.556Z,1.15
2023-04-11T09:02:17.025Z,1.20
2023-04-11T09:05:25.514Z,2.30
2023-04-11T09:08:18.879Z,0.75
2023-04-11T09:11:11.953Z,2.38
2023-04-11T09:14:10.531Z,1.58
2023-04-11T09:20:20.097Z,1.40
2023-04-11T09:23:24.339Z,0.98
2023-04-11T09:26:27.186Z,1.38
2023-04-11T09:29:36.729Z,1.33
2023-04-11T09:32:32.503Z,0.85
2023-04-11T09:35:28.479Z,0.93
2023-04-11T09:43:51.473Z,1.10
2023-04-11T09:48:43.678Z,1.20
2023-04-11T09:51:41.118Z,2.33
2023-04-11T09:54:33.997Z,1.38
2023-04-11T09:57:52.273Z,0.90
2023-04-11T10:00:45.590Z,1.27
2023-04-11T10:03:41.749Z,0.88
2023-04-11T10:06:38.444Z,1.33
2023-04-11T10:09:32.291Z,2.53
2023-04-11T10:12:31.639Z,1.65
2023-04-11T10:15:24.462Z,1.33
2023-04-11T10:19:01.033Z,2.05
2023-04-11T10:21:54.768Z,1.10
2023-04-11T10:25:18.307Z,1.20
2023-04-11T10:28:30.451Z,1.10
2023-04-11T10:34:14.265Z,1.70
2023-04-11T10:37:04.899Z,1.27
2023-04-11T10:43:20.795Z,2.40
2023-04-11T10:49:33.059Z,2.58
2023-04-11T10:52:24.471Z,2.72
2023-04-11T10:55:16.913Z,1.48
2023-04-11T10:58:07.110Z,1.65
2023-04-11T11:01:26.115Z,1.50
2023-04-11T11:04:19.078Z,1.60
2023-04-11T11:07:07.078Z,1.75
2023-04-11T11:10:01.211Z,1.52
2023-04-11T11:12:54.773Z,1.25
2023-04-11T11:15:48.894Z,2.13
2023-04-11T11:18:41.783Z,1.33
2023-04-11T11:21:34.694Z,2.33
2023-04-11T11:24:27.417Z,2.60
2023-04-11T11:27:23.493Z,2.85
2023-04-11T11:30:18.456Z,1.50
2023-04-11T11:33:18.548Z,1.90
2023-04-11T11:36:12.214Z,2.08
2023-04-11T11:39:05.324Z,2.38
2023-04-11T11:41:58.126Z,2.15
2023-04-11T11:45:27.770Z,1.58
2023-04-11T11:48:23.219Z,1.30
2023-04-11T11:51:15.742Z,1.20
2023-04-11T11:54:09.582Z,1.92
2023-04-11T11:57:02.839Z,2.13
2023-04-11T11:59:56.125Z,1.30
2023-04-11T12:02:48.787Z,2.17
2023-04-11T12:05:44.117Z,1.42
2023-04-11T12:12:09.863Z,1.17
2023-04-11T12:15:03.258Z,0.98
2023-04-11T12:17:55.928Z,1.98
2023-04-11T12:20:49.892Z,1.63
2023-04-11T12:27:06.302Z,2.25
2023-04-11T12:29:59.928Z,1.90
2023-04-11T12:32:52.569Z,1.58
2023-04-11T12:35:45.235Z,1.10
2023-04-11T12:38:38.965Z,1.15
2023-04-11T12:41:32.549Z,2.45
2023-04-11T12:44:25.969Z,2.10
2023-04-11T12:50:30.932Z,2.03
2023-04-11T12:56:37.206Z,1.15
2023-04-11T13:02:44.562Z,0.93
2023-04-11T13:05:37.905Z,1.75
2023-04-11T13:08:29.173Z,1.40
2023-04-11T13:11:21.603Z,0.82
2023-04-11T13:14:16.201Z,1.45
2023-04-11T13:17:08.866Z,0.85
2023-04-11T13:20:02.065Z,1.00
2023-04-11T13:22:54.738Z,1.30
2023-04-11T13:25:47.694Z,0.90
2023-04-11T13:28:40.457Z,1.42
2023-04-11T13:31:35.071Z,1.20
2023-04-11T13:37:43.873Z,0.90
2023-04-11T13:40:38.098Z,1.75
2023-04-11T13:43:30.826Z,1.35
2023-04-11T13:46:23.986Z,1.50
2023-04-11T13:49:18.033Z,1.75
2023-04-11T13:52:10.394Z,1.35
2023-04-11T13:55:03.245Z,1.58
2023-04-11T13:57:55.755Z,1.13
2023-04-11T14:04:08.449Z,1.45
2023-04-11T14:10:48.896Z,1.25
2023-04-11T14:13:41.504Z,1.20
2023-04-11T14:16:34.555Z,1.27
2023-04-11T14:19:27.350Z,1.40
2023-04-11T14:25:32.310Z,1.27
2023-04-11T14:28:26.992Z,0.70
2023-04-11T14:34:35.982Z,0.68
2023-04-11T14:37:28.571Z,1.10
2023-04-11T14:40:21.480Z,0.82
2023-04-11T14:43:14.480Z,1.35
2023-04-11T14:46:09.269Z,0.90
2023-04-11T14:49:02.028Z,1.58
2023-04-11T14:51:54.576Z,0.77
2023-04-11T14:58:33.810Z,1.10
2023-04-11T15:01:44.276Z,1.45
2023-04-11T15:04:34.892Z,0.98
2023-04-11T15:07:27.338Z,1.10
2023-04-11T15:10:21.305Z,0.85
2023-04-11T15:13:13.581Z,1.33
2023-04-11T15:16:10.364Z,1.00
2023-04-11T15:19:03.991Z,0.73
2023-04-11T15:25:44.178Z,0.80
2023-04-11T15:28:53.890Z,0.82
2023-04-11T15:31:43.890Z,0.65
2023-04-11T15:38:00.335Z,1.10
2023-04-11T15:40:55.127Z,0.73
2023-04-11T15:43:47.743Z,0.80
2023-04-11T15:46:40.800Z,1.02
2023-04-11T15:53:02.526Z,1.05
2023-04-11T15:55:57.308Z,0.90
2023-04-11T15:58:49.584Z,0.77
2023-04-11T16:01:36.201Z,0.90
2023-04-11T16:04:29.686Z,0.77
2023-04-11T16:07:23.441Z,1.15
2023-04-11T16:10:16.898Z,0.60
2023-04-11T16:13:11.101Z,1.00
2023-04-11T16:16:03.823Z,0.77
2023-04-11T16:18:56.536Z,0.80
2023-04-11T16:21:49.880Z,0.73
2023-04-11T16:24:42.265Z,0.75
2023-04-11T16:27:28.774Z,0.82
2023-04-11T16:30:22.813Z,0.65
2023-04-11T16:33:15.696Z,0.82
2023-04-11T16:36:09.185Z,0.50
2023-04-11T16:38:55.705Z,1.10
2023-04-11T16:41:48.963Z,1.30
2023-04-11T16:44:41.361Z,1.08
2023-04-11T16:47:35.018Z,1.30
2023-04-11T16:50:27.629Z,0.70
2023-04-11T16:56:32.894Z,1.63
2023-04-11T16:59:26.512Z,1.17
2023-04-11T17:02:20.003Z,0.65
2023-04-11T17:08:43.308Z,0.80
2023-04-11T17:12:12.808Z,0.85
2023-04-11T17:15:06.913Z,1.23
2023-04-11T17:17:59.886Z,0.70
2023-04-11T17:24:01.550Z,1.40
2023-04-11T17:26:55.364Z,1.10
2023-04-11T17:29:55.872Z,1.20
2023-04-11T17:32:49.079Z,1.23
2023-04-11T17:35:41.531Z,1.60
2023-04-11T17:38:34.330Z,1.00
2023-04-11T17:41:27.707Z,1.67
2023-04-11T17:44:21.072Z,1.02
2023-04-11T17:50:46.417Z,0.98
2023-04-11T17:54:16.816Z,0.70
2023-04-11T17:57:10.598Z,0.98
2023-04-11T18:00:06.643Z,0.85
2023-04-11T18:06:12.068Z,2.22
2023-04-11T18:09:05.566Z,0.75
2023-04-11T18:11:58.899Z,1.30
2023-04-11T18:14:54.111Z,1.20
2023-04-11T18:17:46.892Z,1.48
2023-04-11T18:20:39.320Z,1.50
2023-04-11T18:23:31.693Z,1.85
2023-04-11T18:26:24.781Z,2.22
2023-04-11T18:29:17.926Z,1.45
2023-04-11T18:32:46.636Z,1.40
2023-04-11T18:35:43.271Z,1.13
2023-04-11T18:39:00.553Z,1.50
2023-04-11T18:41:53.665Z,1.20
2023-04-11T18:44:46.512Z,2.95
2023-04-11T18:47:41.276Z,2.30
2023-04-11T18:50:38.416Z,1.40
2023-04-11T18:53:34.716Z,1.40
2023-04-11T18:56:29.151Z,1.75
2023-04-11T18:59:24.949Z,2.00
2023-04-11T19:05:38.994Z,1.48
2023-04-11T19:11:39.811Z,1.55
2023-04-11T19:14:33.446Z,1.17
2023-04-11T19:17:29.908Z,1.65
2023-04-11T19:20:26.347Z,1.23
2023-04-11T19:26:11.227Z,1.73
2023-04-11T19:29:04.808Z,1.75
2023-04-11T19:31:57.538Z,2.22
2023-04-11T19:38:23.322Z,1.60
2023-04-11T19:41:52.798Z,2.00
2023-04-11T19:44:46.814Z,1.90
2023-04-11T19:47:40.369Z,2.08
2023-04-11T19:50:33.492Z,2.20
2023-04-11T19:56:32.874Z,2.10
2023-04-11T19:59:25.579Z,1.80
2023-04-11T20:02:21.054Z,2.63
2023-04-11T20:05:14.793Z,2.25
2023-04-11T20:08:07.879Z,1.60
2023-04-11T20:11:01.951Z,1.65
2023-04-11T20:13:54.200Z,1.98
2023-04-11T20:17:23.863Z,1.23
2023-04-11T20:20:19.452Z,2.42
2023-04-11T20:23:48.830Z,2.07
2023-04-11T20:26:41.821Z,6.20
2023-04-11T20:32:46.944Z,7.47
2023-04-11T20:35:41.202Z,8.55
2023-04-11T20:38:33.371Z,9.13
2023-04-11T20:44:37.917Z,4.47
2023-04-11T20:50:48.415Z,2.63
2023-04-11T20:53:40.367Z,2.17
2023-04-11T20:56:35.105Z,2.63
2023-04-11T20:59:29.807Z,3.30
2023-04-11T21:02:22.893Z,2.95
2023-04-11T21:05:18.213Z,4.93
2023-04-11T21:08:12.229Z,3.40
2023-04-11T21:11:04.728Z,2.95
2023-04-11T21:13:58.079Z,2.45
2023-04-11T21:16:50.743Z,2.30
2023-04-11T21:22:49.690Z,3.30
2023-04-11T21:25:43.699Z,2.53
2023-04-11T21:29:01.609Z,2.30
2023-04-11T21:31:54.347Z,3.17
2023-04-11T21:38:16.446Z,3.42
2023-04-11T21:41:09.783Z,2.80
2023-04-11T21:44:02.925Z,2.30
2023-04-11T21:46:55.947Z,4.55
2023-04-11T21:49:49.071Z,2.15
2023-04-11T21:52:41.612Z,3.17
2023-04-11T21:55:59.843Z,2.70
2023-04-11T21:58:53.998Z,2.78
2023-04-11T22:01:47.809Z,2.58
2023-04-11T22:04:51.631Z,2.50
2023-04-11T22:08:11.123Z,3.50
2023-04-11T22:11:07.471Z,3.05
2023-04-11T22:14:03.139Z,2.30
2023-04-11T22:16:58.096Z,2.88
2023-04-11T22:19:50.756Z,3.17
2023-04-11T22:22:44.700Z,2.90
2023-04-11T22:25:38.637Z,2.55
2023-04-11T22:28:31.464Z,2.25
2023-04-11T22:31:30.162Z,2.35
2023-04-11T22:34:24.707Z,2.50
2023-04-11T22:37:17.578Z,2.10
2023-04-11T22:40:13.522Z,3.63
2023-04-11T22:49:09.473Z,3.08
2023-04-11T22:52:02.679Z,1.83
2023-04-11T22:54:55.814Z,1.90
2023-04-11T22:57:48.836Z,2.20
2023-04-11T23:00:42.118Z,2.67
2023-04-11T23:03:34.862Z,2.03
2023-04-11T23:06:54.459Z,1.63
2023-04-11T23:09:47.845Z,2.05
2023-04-11T23:12:52.147Z,1.80
2023-04-11T23:15:47.274Z,1.92
2023-04-11T23:18:40.394Z,1.85
2023-04-11T23:21:33.081Z,2.17
2023-04-11T23:24:28.799Z,1.75
2023-04-11T23:30:17.320Z,3.45
2023-04-11T23:33:09.645Z,1.73
2023-04-11T23:35:55.808Z,1.83
2023-04-11T23:38:41.989Z,2.00
2023-04-11T23:41:30.152Z,1.65
2023-04-11T23:44:16.389Z,2.10
2023-04-11T23:47:02.586Z,2.40
2023-04-11T23:49:48.406Z,2.00
2023-04-11T23:53:06.536Z,2.40
2023-04-11T23:55:52.807Z,2.28
